sensor_id;sensor_type;location;lat;lon;timestamp;pressure;altitude;pressure_sealevel;temperature;humidity
55486;BME280;71262;-25.924;28.194;2023-07-16T00:01:50;85812.91;;;17.59;30.93
55486;BME280;71262;-25.924;28.194;2023-07-16T00:04:15;85820.11;;;17.53;31.01
55486;BME280;71262;-25.924;28.194;2023-07-16T00:06:41;85817.92;;;17.55;31.02
55486;BME280;71262;-25.924;28.194;2023-07-16T00:09:06;85818.48;;;17.50;31.08
55486;BME280;71262;-25.924;28.194;2023-07-16T00:11:32;85817.11;;;17.57;31.07
55486;BME280;71262;-25.924;28.194;2023-07-16T00:13:57;85815.38;;;17.71;31.15
55486;BME280;71262;-25.924;28.194;2023-07-16T00:16:23;85808.54;;;17.43;31.19
55486;BME280;71262;-25.924;28.194;2023-07-16T00:18:48;85805.90;;;17.92;31.17
55486;BME280;71262;-25.924;28.194;2023-07-16T00:21:14;85801.78;;;17.91;31.23
55486;BME280;71262;-25.924;28.194;2023-07-16T00:23:40;85799.99;;;17.43;31.20
55486;BME280;71262;-25.924;28.194;2023-07-16T00:26:06;85806.53;;;17.94;31.16
55486;BME280;71262;-25.924;28.194;2023-07-16T00:28:31;85807.31;;;17.46;31.21
55486;BME280;71262;-25.924;28.194;2023-07-16T00:30:57;85811.15;;;17.74;31.20
55486;BME280;71262;-25.924;28.194;2023-07-16T00:33:22;85807.32;;;17.72;31.17
55486;BME280;71262;-25.924;28.194;2023-07-16T00:35:48;85804.55;;;17.75;31.13
55486;BME280;71262;-25.924;28.194;2023-07-16T00:38:14;85807.18;;;17.43;31.20
55486;BME280;71262;-25.924;28.194;2023-07-16T00:40:39;85808.25;;;17.69;31.20
55486;BME280;71262;-25.924;28.194;2023-07-16T00:43:04;85807.46;;;17.43;31.14
55486;BME280;71262;-25.924;28.194;2023-07-16T00:45:30;85811.09;;;17.41;31.18
55486;BME280;71262;-25.924;28.194;2023-07-16T00:47:55;85810.13;;;17.38;31.21
55486;BME280;71262;-25.924;28.194;2023-07-16T00:50:21;85810.70;;;17.38;31.20
55486;BME280;71262;-25.924;28.194;2023-07-16T00:52:46;85809.14;;;17.38;31.21
55486;BME280;71262;-25.924;28.194;2023-07-16T00:55:12;85806.67;;;17.38;31.21
55486;BME280;71262;-25.924;28.194;2023-07-16T00:57:38;85809.02;;;17.32;31.29
55486;BME280;71262;-25.924;28.194;2023-07-16T01:00:03;85811.40;;;17.62;31.21
55486;BME280;71262;-25.924;28.194;2023-07-16T01:02:28;85805.42;;;17.45;31.11
55486;BME280;71262;-25.924;28.194;2023-07-16T01:04:53;85804.68;;;17.43;31.15
55486;BME280;71262;-25.924;28.194;2023-07-16T01:07:20;85802.40;;;17.38;31.21
55486;BME280;71262;-25.924;28.194;2023-07-16T01:09:45;85802.12;;;17.66;31.23
55486;BME280;71262;-25.924;28.194;2023-07-16T01:12:10;85807.96;;;17.70;31.18
55486;BME280;71262;-25.924;28.194;2023-07-16T01:14:36;85807.35;;;17.40;31.20
55486;BME280;71262;-25.924;28.194;2023-07-16T01:17:04;85812.26;;;17.87;31.16
55486;BME280;71262;-25.924;28.194;2023-07-16T01:19:26;85811.40;;;17.87;31.20
55486;BME280;71262;-25.924;28.194;2023-07-16T01:22:00;85807.59;;;17.36;31.19
55486;BME280;71262;-25.924;28.194;2023-07-16T01:24:31;85805.82;;;17.66;31.12
55486;BME280;71262;-25.924;28.194;2023-07-16T01:26:57;85803.62;;;17.44;31.05
55486;BME280;71262;-25.924;28.194;2023-07-16T01:31:34;85802.43;;;17.38;31.08
55486;BME280;71262;-25.924;28.194;2023-07-16T01:34:00;85804.82;;;17.60;31.14
55486;BME280;71262;-25.924;28.194;2023-07-16T01:36:25;85805.75;;;17.62;31.08
55486;BME280;71262;-25.924;28.194;2023-07-16T01:38:51;85812.70;;;17.41;31.06
55486;BME280;71262;-25.924;28.194;2023-07-16T01:41:16;85811.37;;;17.36;31.09
55486;BME280;71262;-25.924;28.194;2023-07-16T01:43:42;85806.81;;;17.35;31.07
55486;BME280;71262;-25.924;28.194;2023-07-16T01:46:07;85806.47;;;17.79;31.12
55486;BME280;71262;-25.924;28.194;2023-07-16T01:48:35;85802.08;;;17.80;31.05
55486;BME280;71262;-25.924;28.194;2023-07-16T01:50:59;85805.06;;;17.54;31.11
55486;BME280;71262;-25.924;28.194;2023-07-16T01:53:24;85805.16;;;17.58;31.02
55486;BME280;71262;-25.924;28.194;2023-07-16T01:55:49;85800.01;;;17.61;31.00
55486;BME280;71262;-25.924;28.194;2023-07-16T01:58:15;85795.08;;;17.62;30.96
55486;BME280;71262;-25.924;28.194;2023-07-16T02:00:40;85794.51;;;17.35;30.94
55486;BME280;71262;-25.924;28.194;2023-07-16T02:03:05;85794.37;;;17.80;30.97
55486;BME280;71262;-25.924;28.194;2023-07-16T02:05:30;85791.13;;;17.85;30.88
55486;BME280;71262;-25.924;28.194;2023-07-16T02:07:56;85792.77;;;17.41;30.83
55486;BME280;71262;-25.924;28.194;2023-07-16T02:10:21;85796.53;;;17.71;30.80
55486;BME280;71262;-25.924;28.194;2023-07-16T02:12:47;85794.01;;;17.87;30.86
55486;BME280;71262;-25.924;28.194;2023-07-16T02:15:12;85792.67;;;17.62;30.85
55486;BME280;71262;-25.924;28.194;2023-07-16T02:17:38;85792.67;;;17.49;30.96
55486;BME280;71262;-25.924;28.194;2023-07-16T02:20:04;85793.98;;;17.74;31.00
55486;BME280;71262;-25.924;28.194;2023-07-16T02:22:29;85795.60;;;17.32;30.88
55486;BME280;71262;-25.924;28.194;2023-07-16T02:24:54;85797.28;;;17.87;30.75
55486;BME280;71262;-25.924;28.194;2023-07-16T02:27:20;85798.22;;;17.84;30.79
55486;BME280;71262;-25.924;28.194;2023-07-16T02:29:45;85799.93;;;17.51;30.96
55486;BME280;71262;-25.924;28.194;2023-07-16T02:32:11;85800.39;;;17.76;30.90
55486;BME280;71262;-25.924;28.194;2023-07-16T02:34:38;85800.86;;;17.58;30.84
55486;BME280;71262;-25.924;28.194;2023-07-16T02:37:02;85802.22;;;17.80;30.86
55486;BME280;71262;-25.924;28.194;2023-07-16T02:39:27;85803.04;;;17.27;30.87
55486;BME280;71262;-25.924;28.194;2023-07-16T02:41:52;85804.42;;;17.80;30.81
55486;BME280;71262;-25.924;28.194;2023-07-16T02:44:18;85806.99;;;17.54;30.81
55486;BME280;71262;-25.924;28.194;2023-07-16T02:46:44;85806.52;;;17.79;30.79
55486;BME280;71262;-25.924;28.194;2023-07-16T02:49:09;85807.67;;;17.24;30.86
55486;BME280;71262;-25.924;28.194;2023-07-16T02:51:34;85807.17;;;17.72;30.84
55486;BME280;71262;-25.924;28.194;2023-07-16T02:54:00;85806.47;;;17.26;30.77
55486;BME280;71262;-25.924;28.194;2023-07-16T02:56:26;85803.92;;;17.27;30.78
55486;BME280;71262;-25.924;28.194;2023-07-16T02:58:52;85803.25;;;17.34;30.66
55486;BME280;71262;-25.924;28.194;2023-07-16T03:01:17;85801.29;;;17.35;30.67
55486;BME280;71262;-25.924;28.194;2023-07-16T03:03:43;85803.30;;;17.25;30.73
55486;BME280;71262;-25.924;28.194;2023-07-16T03:06:09;85806.56;;;17.31;30.67
55486;BME280;71262;-25.924;28.194;2023-07-16T03:08:35;85807.54;;;17.78;30.67
55486;BME280;71262;-25.924;28.194;2023-07-16T03:10:59;85805.65;;;17.30;30.63
55486;BME280;71262;-25.924;28.194;2023-07-16T03:13:25;85803.51;;;17.82;30.65
55486;BME280;71262;-25.924;28.194;2023-07-16T03:15:50;85802.31;;;17.73;30.75
55486;BME280;71262;-25.924;28.194;2023-07-16T03:18:19;85802.63;;;17.67;30.84
55486;BME280;71262;-25.924;28.194;2023-07-16T03:20:41;85807.07;;;17.61;30.96
55486;BME280;71262;-25.924;28.194;2023-07-16T03:23:06;85807.24;;;17.66;30.87
55486;BME280;71262;-25.924;28.194;2023-07-16T03:25:31;85812.39;;;17.17;30.82
55486;BME280;71262;-25.924;28.194;2023-07-16T03:27:57;85812.05;;;17.11;30.81
55486;BME280;71262;-25.924;28.194;2023-07-16T03:30:22;85809.18;;;17.08;30.92
55486;BME280;71262;-25.924;28.194;2023-07-16T03:32:47;85811.18;;;17.13;30.96
55486;BME280;71262;-25.924;28.194;2023-07-16T03:35:13;85815.99;;;17.39;30.92
55486;BME280;71262;-25.924;28.194;2023-07-16T03:37:38;85818.71;;;17.45;30.90
55486;BME280;71262;-25.924;28.194;2023-07-16T03:42:29;85824.45;;;17.76;30.77
55486;BME280;71262;-25.924;28.194;2023-07-16T03:44:54;85822.68;;;17.22;30.77
55486;BME280;71262;-25.924;28.194;2023-07-16T03:47:20;85824.30;;;17.43;30.77
55486;BME280;71262;-25.924;28.194;2023-07-16T03:49:45;85825.22;;;17.65;30.75
55486;BME280;71262;-25.924;28.194;2023-07-16T03:52:10;85828.70;;;17.67;30.73
55486;BME280;71262;-25.924;28.194;2023-07-16T03:54:36;85829.15;;;17.22;30.70
55486;BME280;71262;-25.924;28.194;2023-07-16T03:57:01;85828.03;;;17.61;30.78
55486;BME280;71262;-25.924;28.194;2023-07-16T03:59:27;85827.67;;;17.65;30.74
55486;BME280;71262;-25.924;28.194;2023-07-16T04:01:52;85827.98;;;17.45;30.67
55486;BME280;71262;-25.924;28.194;2023-07-16T04:04:17;85826.46;;;17.67;30.64
55486;BME280;71262;-25.924;28.194;2023-07-16T04:06:43;85826.81;;;17.72;30.54
55486;BME280;71262;-25.924;28.194;2023-07-16T04:09:08;85828.31;;;17.66;30.55
55486;BME280;71262;-25.924;28.194;2023-07-16T04:11:33;85830.02;;;17.60;30.60
55486;BME280;71262;-25.924;28.194;2023-07-16T04:13:59;85831.70;;;17.62;30.57
55486;BME280;71262;-25.924;28.194;2023-07-16T04:16:24;85833.58;;;17.18;30.51
55486;BME280;71262;-25.924;28.194;2023-07-16T04:18:50;85836.01;;;17.37;30.54
55486;BME280;71262;-25.924;28.194;2023-07-16T04:21:15;85841.03;;;17.56;30.55
55486;BME280;71262;-25.924;28.194;2023-07-16T04:23:41;85842.65;;;17.20;30.49
55486;BME280;71262;-25.924;28.194;2023-07-16T04:26:06;85846.90;;;17.71;30.40
55486;BME280;71262;-25.924;28.194;2023-07-16T04:28:32;85849.74;;;17.32;30.32
55486;BME280;71262;-25.924;28.194;2023-07-16T04:30:57;85848.32;;;16.75;30.33
55486;BME280;71262;-25.924;28.194;2023-07-16T04:33:23;85849.79;;;17.72;30.32
55486;BME280;71262;-25.924;28.194;2023-07-16T04:35:48;85854.30;;;17.46;30.38
55486;BME280;71262;-25.924;28.194;2023-07-16T04:38:14;85858.71;;;17.36;30.44
55486;BME280;71262;-25.924;28.194;2023-07-16T04:40:41;85859.33;;;17.51;30.48
55486;BME280;71262;-25.924;28.194;2023-07-16T04:43:04;85859.87;;;17.04;30.49
55486;BME280;71262;-25.924;28.194;2023-07-16T04:45:30;85860.49;;;17.06;30.43
55486;BME280;71262;-25.924;28.194;2023-07-16T04:47:55;85861.48;;;17.23;30.50
55486;BME280;71262;-25.924;28.194;2023-07-16T04:50:21;85863.86;;;17.43;30.57
55486;BME280;71262;-25.924;28.194;2023-07-16T04:52:46;85864.11;;;17.46;30.57
55486;BME280;71262;-25.924;28.194;2023-07-16T04:55:11;85868.86;;;17.24;30.62
55486;BME280;71262;-25.924;28.194;2023-07-16T04:57:37;85872.56;;;17.31;30.51
55486;BME280;71262;-25.924;28.194;2023-07-16T05:00:03;85876.43;;;17.34;30.44
55486;BME280;71262;-25.924;28.194;2023-07-16T05:02:28;85878.22;;;17.55;30.57
55486;BME280;71262;-25.924;28.194;2023-07-16T05:04:53;85879.74;;;17.35;30.53
55486;BME280;71262;-25.924;28.194;2023-07-16T05:07:19;85878.17;;;17.50;30.55
55486;BME280;71262;-25.924;28.194;2023-07-16T05:09:44;85876.17;;;17.07;30.47
55486;BME280;71262;-25.924;28.194;2023-07-16T05:12:10;85877.70;;;17.55;30.43
55486;BME280;71262;-25.924;28.194;2023-07-16T05:14:44;85879.18;;;17.56;30.54
55486;BME280;71262;-25.924;28.194;2023-07-16T05:17:01;85878.78;;;17.06;30.57
55486;BME280;71262;-25.924;28.194;2023-07-16T05:19:26;85886.17;;;17.51;30.63
55486;BME280;71262;-25.924;28.194;2023-07-16T05:21:51;85886.85;;;17.39;30.78
55486;BME280;71262;-25.924;28.194;2023-07-16T05:24:17;85894.75;;;17.39;31.06
55486;BME280;71262;-25.924;28.194;2023-07-16T05:26:43;85894.78;;;17.47;31.26
55486;BME280;71262;-25.924;28.194;2023-07-16T05:29:08;85895.47;;;17.52;31.41
55486;BME280;71262;-25.924;28.194;2023-07-16T05:31:33;85897.25;;;17.89;31.46
55486;BME280;71262;-25.924;28.194;2023-07-16T05:33:59;85899.20;;;17.95;31.54
55486;BME280;71262;-25.924;28.194;2023-07-16T05:36:25;85897.02;;;18.06;31.55
55486;BME280;71262;-25.924;28.194;2023-07-16T05:38:51;85898.51;;;17.63;31.58
55486;BME280;71262;-25.924;28.194;2023-07-16T05:41:16;85902.91;;;17.67;31.72
55486;BME280;71262;-25.924;28.194;2023-07-16T05:43:41;85906.83;;;17.70;31.77
55486;BME280;71262;-25.924;28.194;2023-07-16T05:46:06;85910.97;;;17.73;31.80
55486;BME280;71262;-25.924;28.194;2023-07-16T05:48:32;85911.83;;;18.18;31.72
55486;BME280;71262;-25.924;28.194;2023-07-16T05:50:57;85915.05;;;17.86;31.81
55486;BME280;71262;-25.924;28.194;2023-07-16T05:53:22;85914.23;;;17.88;31.55
55486;BME280;71262;-25.924;28.194;2023-07-16T05:55:48;85916.62;;;18.02;31.39
55486;BME280;71262;-25.924;28.194;2023-07-16T05:58:14;85917.49;;;18.36;31.28
55486;BME280;71262;-25.924;28.194;2023-07-16T06:00:39;85918.88;;;18.22;31.22
55486;BME280;71262;-25.924;28.194;2023-07-16T06:03:04;85919.35;;;18.36;30.91
55486;BME280;71262;-25.924;28.194;2023-07-16T06:05:30;85925.29;;;18.52;30.82
55486;BME280;71262;-25.924;28.194;2023-07-16T06:07:55;85930.36;;;18.82;30.50
55486;BME280;71262;-25.924;28.194;2023-07-16T06:10:21;85929.97;;;18.99;30.44
55486;BME280;71262;-25.924;28.194;2023-07-16T06:12:46;85936.86;;;19.14;30.34
55486;BME280;71262;-25.924;28.194;2023-07-16T06:15:12;85931.23;;;19.03;30.26
55486;BME280;71262;-25.924;28.194;2023-07-16T06:17:37;85932.26;;;19.04;30.07
55486;BME280;71262;-25.924;28.194;2023-07-16T06:20:03;85937.26;;;19.27;30.05
55486;BME280;71262;-25.924;28.194;2023-07-16T06:22:28;85941.25;;;19.22;29.93
55486;BME280;71262;-25.924;28.194;2023-07-16T06:24:54;85946.58;;;19.23;29.93
55486;BME280;71262;-25.924;28.194;2023-07-16T06:27:19;85945.39;;;19.54;29.70
55486;BME280;71262;-25.924;28.194;2023-07-16T06:29:45;85949.76;;;19.55;29.81
55486;BME280;71262;-25.924;28.194;2023-07-16T06:32:10;85953.01;;;19.73;29.58
55486;BME280;71262;-25.924;28.194;2023-07-16T06:34:36;85953.56;;;19.59;29.46
55486;BME280;71262;-25.924;28.194;2023-07-16T06:37:02;85956.79;;;19.50;29.41
55486;BME280;71262;-25.924;28.194;2023-07-16T06:39:27;85959.54;;;19.65;29.48
55486;BME280;71262;-25.924;28.194;2023-07-16T06:41:53;85963.33;;;19.80;29.39
55486;BME280;71262;-25.924;28.194;2023-07-16T06:44:18;85965.61;;;20.11;29.45
55486;BME280;71262;-25.924;28.194;2023-07-16T06:46:44;85965.36;;;19.83;29.20
55486;BME280;71262;-25.924;28.194;2023-07-16T06:49:09;85969.22;;;19.84;29.43
55486;BME280;71262;-25.924;28.194;2023-07-16T06:51:35;85968.45;;;19.95;29.13
55486;BME280;71262;-25.924;28.194;2023-07-16T06:54:00;85973.21;;;20.28;29.08
55486;BME280;71262;-25.924;28.194;2023-07-16T06:56:25;85972.01;;;20.13;29.14
55486;BME280;71262;-25.924;28.194;2023-07-16T06:58:51;85974.93;;;19.96;29.24
55486;BME280;71262;-25.924;28.194;2023-07-16T07:01:16;85977.00;;;20.31;29.05
55486;BME280;71262;-25.924;28.194;2023-07-16T07:03:42;85979.59;;;20.24;29.23
55486;BME280;71262;-25.924;28.194;2023-07-16T07:06:07;85985.85;;;20.46;29.05
55486;BME280;71262;-25.924;28.194;2023-07-16T07:08:32;85991.97;;;20.48;29.17
55486;BME280;71262;-25.924;28.194;2023-07-16T07:10:58;85991.06;;;20.52;29.04
55486;BME280;71262;-25.924;28.194;2023-07-16T07:13:25;85991.92;;;20.55;29.06
55486;BME280;71262;-25.924;28.194;2023-07-16T07:15:48;85989.27;;;20.35;29.25
55486;BME280;71262;-25.924;28.194;2023-07-16T07:18:14;85988.17;;;20.65;29.14
55486;BME280;71262;-25.924;28.194;2023-07-16T07:20:40;85988.37;;;20.60;28.99
55486;BME280;71262;-25.924;28.194;2023-07-16T07:23:04;85985.83;;;20.56;29.17
55486;BME280;71262;-25.924;28.194;2023-07-16T07:25:29;85987.66;;;20.65;29.23
55486;BME280;71262;-25.924;28.194;2023-07-16T07:27:54;85988.20;;;20.96;29.18
55486;BME280;71262;-25.924;28.194;2023-07-16T07:30:20;85985.00;;;21.04;29.05
55486;BME280;71262;-25.924;28.194;2023-07-16T07:32:46;85982.82;;;20.65;29.02
55486;BME280;71262;-25.924;28.194;2023-07-16T07:35:11;85984.72;;;20.96;29.18
55486;BME280;71262;-25.924;28.194;2023-07-16T07:37:36;85983.20;;;20.97;29.23
55486;BME280;71262;-25.924;28.194;2023-07-16T07:40:02;85983.45;;;21.01;29.23
55486;BME280;71262;-25.924;28.194;2023-07-16T07:42:27;85982.20;;;21.16;29.03
55486;BME280;71262;-25.924;28.194;2023-07-16T07:44:52;85981.29;;;20.87;28.97
55486;BME280;71262;-25.924;28.194;2023-07-16T07:47:17;85978.84;;;21.25;28.92
55486;BME280;71262;-25.924;28.194;2023-07-16T07:49:43;85979.04;;;21.00;28.95
55486;BME280;71262;-25.924;28.194;2023-07-16T07:52:08;85979.57;;;21.25;29.07
55486;BME280;71262;-25.924;28.194;2023-07-16T07:54:33;85976.52;;;21.08;29.10
55486;BME280;71262;-25.924;28.194;2023-07-16T07:57:02;85979.41;;;21.35;29.10
55486;BME280;71262;-25.924;28.194;2023-07-16T07:59:24;85978.77;;;21.16;29.20
55486;BME280;71262;-25.924;28.194;2023-07-16T08:01:49;85972.91;;;21.22;29.26
55486;BME280;71262;-25.924;28.194;2023-07-16T08:04:14;85970.82;;;21.24;29.25
55486;BME280;71262;-25.924;28.194;2023-07-16T08:06:39;85970.56;;;21.19;29.28
55486;BME280;71262;-25.924;28.194;2023-07-16T08:09:04;85968.81;;;21.24;29.37
55486;BME280;71262;-25.924;28.194;2023-07-16T08:11:29;85971.29;;;21.26;29.09
55486;BME280;71262;-25.924;28.194;2023-07-16T08:13:54;85971.89;;;21.38;29.26
55486;BME280;71262;-25.924;28.194;2023-07-16T08:16:19;85970.15;;;21.45;29.04
55486;BME280;71262;-25.924;28.194;2023-07-16T08:18:44;85974.29;;;21.50;29.08
55486;BME280;71262;-25.924;28.194;2023-07-16T08:21:09;85972.59;;;21.56;29.01
55486;BME280;71262;-25.924;28.194;2023-07-16T08:23:35;85971.89;;;21.57;29.05
55486;BME280;71262;-25.924;28.194;2023-07-16T08:26:00;85969.63;;;21.56;29.19
55486;BME280;71262;-25.924;28.194;2023-07-16T08:28:25;85965.67;;;21.66;29.04
55486;BME280;71262;-25.924;28.194;2023-07-16T08:30:50;85965.61;;;21.65;29.15
55486;BME280;71262;-25.924;28.194;2023-07-16T08:33:16;85966.57;;;21.67;29.21
55486;BME280;71262;-25.924;28.194;2023-07-16T08:35:40;85964.90;;;21.71;29.06
55486;BME280;71262;-25.924;28.194;2023-07-16T08:38:05;85965.09;;;21.74;29.11
55486;BME280;71262;-25.924;28.194;2023-07-16T08:40:30;85963.41;;;21.52;29.15
55486;BME280;71262;-25.924;28.194;2023-07-16T08:42:56;85966.70;;;21.74;29.10
55486;BME280;71262;-25.924;28.194;2023-07-16T08:45:22;85967.76;;;21.80;29.14
55486;BME280;71262;-25.924;28.194;2023-07-16T08:47:46;85967.98;;;21.85;28.94
55486;BME280;71262;-25.924;28.194;2023-07-16T08:50:12;85967.19;;;21.76;28.97
55486;BME280;71262;-25.924;28.194;2023-07-16T08:52:36;85967.94;;;21.84;29.15
55486;BME280;71262;-25.924;28.194;2023-07-16T08:55:01;85961.23;;;21.88;29.18
55486;BME280;71262;-25.924;28.194;2023-07-16T08:57:26;85959.73;;;21.90;28.93
55486;BME280;71262;-25.924;28.194;2023-07-16T08:59:52;85956.77;;;21.95;29.16
55486;BME280;71262;-25.924;28.194;2023-07-16T09:02:18;85961.51;;;21.93;29.16
55486;BME280;71262;-25.924;28.194;2023-07-16T09:04:41;85955.22;;;21.90;29.24
55486;BME280;71262;-25.924;28.194;2023-07-16T09:07:06;85957.22;;;21.88;29.48
55486;BME280;71262;-25.924;28.194;2023-07-16T09:09:31;85955.58;;;21.93;29.46
55486;BME280;71262;-25.924;28.194;2023-07-16T09:11:56;85949.36;;;21.92;29.14
55486;BME280;71262;-25.924;28.194;2023-07-16T09:14:22;85943.05;;;21.91;29.25
55486;BME280;71262;-25.924;28.194;2023-07-16T09:16:49;85938.71;;;21.95;29.23
55486;BME280;71262;-25.924;28.194;2023-07-16T09:19:12;85931.83;;;21.75;28.83
55486;BME280;71262;-25.924;28.194;2023-07-16T09:21:37;85932.23;;;22.14;28.69
55486;BME280;71262;-25.924;28.194;2023-07-16T09:24:07;85934.86;;;22.07;28.82
55486;BME280;71262;-25.924;28.194;2023-07-16T09:26:27;85928.97;;;21.85;28.70
55486;BME280;71262;-25.924;28.194;2023-07-16T09:28:52;85926.20;;;21.83;29.36
55486;BME280;71262;-25.924;28.194;2023-07-16T09:31:17;85925.48;;;21.89;28.66
55486;BME280;71262;-25.924;28.194;2023-07-16T09:33:42;85924.46;;;21.87;28.63
55486;BME280;71262;-25.924;28.194;2023-07-16T09:36:08;85923.76;;;21.84;29.12
55486;BME280;71262;-25.924;28.194;2023-07-16T09:38:34;85915.55;;;22.34;28.58
55486;BME280;71262;-25.924;28.194;2023-07-16T09:40:58;85911.15;;;22.22;28.75
55486;BME280;71262;-25.924;28.194;2023-07-16T09:43:22;85909.89;;;22.02;28.72
55486;BME280;71262;-25.924;28.194;2023-07-16T09:45:47;85904.89;;;22.06;28.78
55486;BME280;71262;-25.924;28.194;2023-07-16T09:48:14;85899.17;;;21.70;28.91
55486;BME280;71262;-25.924;28.194;2023-07-16T09:50:39;85897.60;;;21.77;28.80
55486;BME280;71262;-25.924;28.194;2023-07-16T09:53:04;85897.99;;;21.61;28.76
55486;BME280;71262;-25.924;28.194;2023-07-16T09:55:28;85892.47;;;21.93;28.76
55486;BME280;71262;-25.924;28.194;2023-07-16T09:57:56;85893.25;;;21.77;28.94
55486;BME280;71262;-25.924;28.194;2023-07-16T10:00:18;85891.37;;;21.52;29.11
55486;BME280;71262;-25.924;28.194;2023-07-16T10:02:44;85890.31;;;21.52;29.00
55486;BME280;71262;-25.924;28.194;2023-07-16T10:05:13;85884.84;;;21.38;29.17
55486;BME280;71262;-25.924;28.194;2023-07-16T10:07:33;85884.34;;;21.31;29.20
55486;BME280;71262;-25.924;28.194;2023-07-16T10:09:58;85879.78;;;21.19;29.31
55486;BME280;71262;-25.924;28.194;2023-07-16T10:12:25;85874.04;;;21.20;29.27
55486;BME280;71262;-25.924;28.194;2023-07-16T10:14:50;85868.13;;;21.15;29.28
55486;BME280;71262;-25.924;28.194;2023-07-16T10:17:15;85869.89;;;21.30;29.10
55486;BME280;71262;-25.924;28.194;2023-07-16T10:19:47;85863.28;;;21.40;29.24
55486;BME280;71262;-25.924;28.194;2023-07-16T10:22:04;85858.80;;;21.09;29.28
55486;BME280;71262;-25.924;28.194;2023-07-16T10:24:31;85857.09;;;21.02;29.30
55486;BME280;71262;-25.924;28.194;2023-07-16T10:26:54;85854.71;;;21.25;29.27
55486;BME280;71262;-25.924;28.194;2023-07-16T10:29:19;85850.32;;;21.11;29.35
55486;BME280;71262;-25.924;28.194;2023-07-16T10:31:44;85849.04;;;21.02;29.22
55486;BME280;71262;-25.924;28.194;2023-07-16T10:34:09;85849.70;;;20.87;29.30
55486;BME280;71262;-25.924;28.194;2023-07-16T10:36:38;85843.61;;;21.27;29.06
55486;BME280;71262;-25.924;28.194;2023-07-16T10:39:03;85836.39;;;21.10;29.18
55486;BME280;71262;-25.924;28.194;2023-07-16T10:41:24;85833.78;;;20.89;29.11
55486;BME280;71262;-25.924;28.194;2023-07-16T10:43:50;85829.88;;;21.13;29.07
55486;BME280;71262;-25.924;28.194;2023-07-16T10:46:14;85822.81;;;21.08;29.03
55486;BME280;71262;-25.924;28.194;2023-07-16T10:48:46;85812.80;;;20.77;29.09
55486;BME280;71262;-25.924;28.194;2023-07-16T10:51:05;85805.70;;;21.07;28.96
55486;BME280;71262;-25.924;28.194;2023-07-16T10:53:30;85801.28;;;21.06;28.95
55486;BME280;71262;-25.924;28.194;2023-07-16T10:55:55;85795.89;;;21.21;29.05
55486;BME280;71262;-25.924;28.194;2023-07-16T10:58:20;85796.15;;;21.02;28.92
55486;BME280;71262;-25.924;28.194;2023-07-16T11:00:45;85793.01;;;21.18;29.00
55486;BME280;71262;-25.924;28.194;2023-07-16T11:03:10;85791.65;;;20.95;28.97
55486;BME280;71262;-25.924;28.194;2023-07-16T11:05:36;85796.49;;;20.74;29.13
55486;BME280;71262;-25.924;28.194;2023-07-16T11:08:00;85794.85;;;21.01;29.16
55486;BME280;71262;-25.924;28.194;2023-07-16T11:10:29;85786.35;;;20.96;29.22
55486;BME280;71262;-25.924;28.194;2023-07-16T11:12:52;85785.10;;;20.87;29.32
55486;BME280;71262;-25.924;28.194;2023-07-16T11:15:15;85780.73;;;20.93;29.28
55486;BME280;71262;-25.924;28.194;2023-07-16T11:17:41;85773.43;;;20.87;29.29
55486;BME280;71262;-25.924;28.194;2023-07-16T11:20:08;85764.00;;;20.78;29.41
55486;BME280;71262;-25.924;28.194;2023-07-16T11:22:31;85770.86;;;20.40;29.53
55486;BME280;71262;-25.924;28.194;2023-07-16T11:24:56;85761.89;;;20.77;29.38
55486;BME280;71262;-25.924;28.194;2023-07-16T11:27:23;85765.34;;;20.71;29.45
55486;BME280;71262;-25.924;28.194;2023-07-16T11:29:47;85757.78;;;20.63;29.54
55486;BME280;71262;-25.924;28.194;2023-07-16T11:32:11;85749.66;;;20.65;29.55
55486;BME280;71262;-25.924;28.194;2023-07-16T11:34:36;85742.57;;;20.58;29.62
55486;BME280;71262;-25.924;28.194;2023-07-16T11:37:07;85738.06;;;20.57;29.63
55486;BME280;71262;-25.924;28.194;2023-07-16T11:39:29;85726.56;;;20.55;29.65
55486;BME280;71262;-25.924;28.194;2023-07-16T11:41:56;85725.76;;;20.43;29.78
55486;BME280;71262;-25.924;28.194;2023-07-16T11:44:20;85729.42;;;20.13;29.80
55486;BME280;71262;-25.924;28.194;2023-07-16T11:46:42;85729.17;;;20.37;29.84
55486;BME280;71262;-25.924;28.194;2023-07-16T11:49:07;85729.99;;;20.34;29.93
55486;BME280;71262;-25.924;28.194;2023-07-16T11:51:32;85728.22;;;20.29;29.94
55486;BME280;71262;-25.924;28.194;2023-07-16T11:53:57;85726.96;;;20.51;29.97
55486;BME280;71262;-25.924;28.194;2023-07-16T11:56:22;85724.29;;;19.97;30.02
55486;BME280;71262;-25.924;28.194;2023-07-16T11:58:48;85724.56;;;20.27;29.99
55486;BME280;71262;-25.924;28.194;2023-07-16T12:01:12;85723.49;;;20.27;29.93
55486;BME280;71262;-25.924;28.194;2023-07-16T12:03:37;85728.50;;;20.26;29.93
55486;BME280;71262;-25.924;28.194;2023-07-16T12:06:03;85718.83;;;20.17;29.98
55486;BME280;71262;-25.924;28.194;2023-07-16T12:08:28;85717.31;;;20.18;29.97
55486;BME280;71262;-25.924;28.194;2023-07-16T12:10:53;85724.55;;;20.41;29.98
55486;BME280;71262;-25.924;28.194;2023-07-16T12:13:18;85726.74;;;20.08;30.06
55486;BME280;71262;-25.924;28.194;2023-07-16T12:15:43;85720.47;;;20.38;30.01
55486;BME280;71262;-25.924;28.194;2023-07-16T12:18:08;85724.94;;;20.03;30.21
55486;BME280;71262;-25.924;28.194;2023-07-16T12:20:34;85721.98;;;20.06;30.21
55486;BME280;71262;-25.924;28.194;2023-07-16T12:22:59;85718.98;;;20.06;30.20
55486;BME280;71262;-25.924;28.194;2023-07-16T12:25:24;85717.55;;;20.37;30.00
55486;BME280;71262;-25.924;28.194;2023-07-16T12:27:50;85712.10;;;20.10;30.01
55486;BME280;71262;-25.924;28.194;2023-07-16T12:30:15;85711.56;;;20.04;30.00
55486;BME280;71262;-25.924;28.194;2023-07-16T12:32:40;85709.45;;;20.24;30.00
55486;BME280;71262;-25.924;28.194;2023-07-16T12:35:06;85705.47;;;20.30;29.87